Time;durP1;ratioP1;P1;durP2;ratioP2;P2;SDS_P1;SDS_P2;PMS_P1;PMS_P2;Temp;Humidity;BMP_temperature;BMP_pressure;BME280_temperature;BME280_humidity;BME280_pressure;Samples;Min_cycle;Max_cycle;Signal;HPM_P1;HPM_P2
2021/05/11 00:00:15;;;;;;;2.35;1.42;;;;;;;21.58;36.21;100836.47;4172796;28;20552;-50
2021/05/11 00:02:15;;;;;;;5.07;1.85;;;;;;;21.54;36.04;100837.06;4173646;28;20044;-56
2021/05/11 00:04:16;;;;;;;4.75;1.60;;;;;;;21.51;36.24;100836.84;4175632;28;20091;-53
2021/05/11 00:06:16;;;;;;;3.28;1.80;;;;;;;21.51;35.96;100840.47;4172585;28;20051;-52
2021/05/11 00:08:17;;;;;;;3.92;1.90;;;;;;;21.51;36.25;100834.06;4176064;28;20041;-53
2021/05/11 00:10:17;;;;;;;4.68;1.90;;;;;;;21.48;36.03;100832.69;4172553;28;20150;-50
2021/05/11 00:12:18;;;;;;;5.40;1.70;;;;;;;21.47;36.12;100835.78;4169048;28;20696;-52
2021/05/11 00:14:18;;;;;;;3.65;1.67;;;;;;;21.47;36.12;100842.19;4175930;28;20029;-50
2021/05/11 00:16:18;;;;;;;3.95;1.73;;;;;;;21.42;36.20;100838.63;4174079;28;20048;-49
2021/05/11 00:18:19;;;;;;;3.00;1.85;;;;;;;21.40;35.97;100835.34;4175538;28;20029;-52
2021/05/11 00:20:20;;;;;;;5.50;1.90;;;;;;;21.42;36.15;100835.84;4174661;28;20064;-53
2021/05/11 00:22:20;;;;;;;3.72;1.67;;;;;;;21.43;36.28;100838.34;4175135;28;20455;-49
2021/05/11 00:24:21;;;;;;;6.80;2.00;;;;;;;21.40;35.97;100829.75;4176348;28;20029;-50
2021/05/11 00:26:21;;;;;;;5.65;1.70;;;;;;;21.44;35.95;100844.72;4170739;28;20119;-52
2021/05/11 00:28:23;;;;;;;3.70;1.63;;;;;;;21.41;35.94;100834.19;4175021;28;20033;-52
2021/05/11 00:30:23;;;;;;;3.08;1.60;;;;;;;21.36;35.89;100830.34;4173507;28;20021;-52
2021/05/11 00:32:24;;;;;;;4.28;1.80;;;;;;;21.36;35.95;100830.34;4174404;28;20094;-51
2021/05/11 00:34:24;;;;;;;2.78;1.63;;;;;;;21.31;36.17;100837.94;4178615;28;20037;-51
2021/05/11 00:36:25;;;;;;;4.85;1.95;;;;;;;21.34;35.93;100838.16;4173801;28;20812;-53
2021/05/11 00:38:25;;;;;;;5.88;2.17;;;;;;;21.29;36.17;100841.00;4175891;28;20709;-55
2021/05/11 00:40:26;;;;;;;6.43;2.35;;;;;;;21.30;36.14;100837.09;4174061;28;20040;-51
2021/05/11 00:42:26;;;;;;;2.55;1.40;;;;;;;21.30;36.16;100841.81;4176822;28;20107;-52
2021/05/11 00:44:28;;;;;;;3.25;1.67;;;;;;;21.27;36.15;100842.38;4177952;28;20479;-51
2021/05/11 00:46:30;;;;;;;3.35;1.60;;;;;;;21.27;36.13;100842.38;4177595;28;20087;-49
2021/05/11 00:48:30;;;;;;;4.38;1.70;;;;;;;21.21;36.25;100836.06;4178627;28;20044;-51
2021/05/11 00:50:31;;;;;;;3.75;1.60;;;;;;;21.25;35.89;100839.91;4178152;28;20037;-52
2021/05/11 00:52:31;;;;;;;3.97;2.30;;;;;;;21.20;36.35;100842.75;4177994;28;20044;-54
2021/05/11 00:54:32;;;;;;;4.68;1.90;;;;;;;21.19;36.05;100841.06;4177514;28;20079;-54
2021/05/11 00:56:32;;;;;;;5.15;2.10;;;;;;;21.20;35.97;100835.22;4177094;28;20052;-52
2021/05/11 00:58:33;;;;;;;5.25;2.13;;;;;;;21.18;36.23;100833.88;4173410;28;20029;-55
2021/05/11 01:00:34;;;;;;;2.90;2.00;;;;;;;21.17;36.04;100830.25;4178073;28;20041;-53
2021/05/11 01:02:35;;;;;;;7.38;1.85;;;;;;;21.19;36.24;100832.72;4175124;28;20033;-52
2021/05/11 01:04:36;;;;;;;4.03;1.65;;;;;;;21.15;36.10;100828.91;4177457;28;20040;-56
2021/05/11 01:06:37;;;;;;;4.15;2.00;;;;;;;21.17;36.18;100838.59;4170984;28;20068;-50
2021/05/11 01:08:37;;;;;;;3.47;1.83;;;;;;;21.18;36.05;100825.53;4176174;28;20178;-55
2021/05/11 01:10:38;;;;;;;5.30;1.80;;;;;;;21.08;36.00;100820.06;4173319;28;20025;-55
2021/05/11 01:12:38;;;;;;;2.75;1.48;;;;;;;21.16;36.41;100825.81;4176488;28;20025;-52
2021/05/11 01:14:39;;;;;;;3.78;1.65;;;;;;;21.13;36.12;100823.63;4172963;28;20045;-52
2021/05/11 01:16:41;;;;;;;4.47;1.70;;;;;;;21.11;36.14;100827.81;4176889;28;20044;-52
2021/05/11 01:18:41;;;;;;;3.33;1.70;;;;;;;21.13;36.00;100826.41;4174559;28;20048;-54
2021/05/11 01:20:45;;;;;;;3.47;2.08;;;;;;;21.16;36.22;100831.38;4178164;28;20475;-50
2021/05/11 01:23:03;;;;;;;3.38;1.52;;;;;;;21.06;36.14;100830.66;4175497;28;20091;-49
2021/05/11 01:25:08;;;;;;;2.45;1.23;;;;;;;21.05;36.08;100835.38;4177008;28;20128;-51
2021/05/11 01:27:26;;;;;;;2.70;1.35;;;;;;;21.04;36.06;100828.19;4177626;28;20056;-51
2021/05/11 01:32:09;;;;;;;3.95;1.55;;;;;;;21.10;36.26;100837.28;4160065;28;20056;-48
2021/05/11 01:50:12;;;;;;;2.75;1.33;;;;;;;20.93;36.30;100812.69;4172433;28;20095;-51
2021/05/11 01:52:33;;;;;;;3.25;1.45;;;;;;;20.91;36.28;100806.59;4177340;28;20048;-48
2021/05/11 01:55:04;;;;;;;3.53;1.30;;;;;;;20.92;36.20;100803.53;4176295;28;20047;-50
2021/05/11 02:11:19;;;;;;;2.38;1.33;;;;;;;20.90;36.38;100818.84;4173909;28;20040;-52
2021/05/11 02:22:44;;;;;;;3.33;2.00;;;;;;;20.83;36.30;100808.88;4172894;28;20535;-50
2021/05/11 02:24:44;;;;;;;2.80;1.40;;;;;;;20.81;36.25;100810.31;4177136;28;20083;-48
2021/05/11 02:26:45;;;;;;;4.57;1.65;;;;;;;20.81;36.21;100807.53;4176309;28;20033;-51
2021/05/11 02:28:45;;;;;;;2.22;1.55;;;;;;;20.78;36.33;100802.56;4176266;28;20025;-49
2021/05/11 02:30:46;;;;;;;3.17;1.83;;;;;;;20.76;36.35;100810.34;4176892;28;20037;-52
2021/05/11 02:32:47;;;;;;;4.90;1.38;;;;;;;20.80;36.23;100805.88;4172627;28;20033;-48
2021/05/11 02:34:47;;;;;;;2.35;1.27;;;;;;;20.78;36.16;100816.47;4173104;28;20064;-53
2021/05/11 02:36:48;;;;;;;3.22;1.35;;;;;;;20.84;36.21;100807.78;4173958;28;20051;-48
2021/05/11 02:38:48;;;;;;;4.97;1.25;;;;;;;20.74;36.30;100795.91;4177729;28;20028;-49
2021/05/11 02:40:49;;;;;;;2.72;1.50;;;;;;;20.73;36.22;100809.00;4175129;28;20094;-54
2021/05/11 02:42:54;;;;;;;2.15;1.17;;;;;;;20.68;36.40;100803.47;4174588;28;20099;-51
2021/05/11 02:44:56;;;;;;;2.15;1.20;;;;;;;20.64;36.36;100803.25;4176488;28;20029;-53
2021/05/11 02:46:56;;;;;;;1.98;1.10;;;;;;;20.78;36.20;100808.13;4170961;28;20083;-56
2021/05/11 02:48:58;;;;;;;1.83;1.05;;;;;;;20.72;36.04;100803.75;4173018;28;20037;-55
2021/05/11 02:50:59;;;;;;;2.38;1.40;;;;;;;20.77;36.08;100798.13;4170989;28;20562;-52
2021/05/11 02:52:59;;;;;;;1.52;1.02;;;;;;;20.70;36.36;100800.41;4172317;28;20037;-49
2021/05/11 02:54:59;;;;;;;2.92;1.48;;;;;;;20.73;36.50;100805.38;4174989;28;20098;-51
2021/05/11 02:57:00;;;;;;;2.20;1.15;;;;;;;20.65;36.40;100802.13;4173731;28;20079;-51
2021/05/11 02:59:00;;;;;;;6.75;1.33;;;;;;;20.63;36.36;100796.00;4174388;28;20483;-50
2021/05/11 03:01:01;;;;;;;2.75;1.38;;;;;;;20.65;36.27;100795.72;4175520;28;20091;-51
2021/05/11 03:03:04;;;;;;;2.63;1.20;;;;;;;20.61;36.44;100797.44;4174122;28;20403;-51
2021/05/11 03:05:05;;;;;;;1.85;1.35;;;;;;;20.66;36.04;100800.16;4164786;28;20033;-53
2021/05/11 03:07:06;;;;;;;2.38;1.20;;;;;;;20.60;36.12;100796.59;4171867;28;20025;-51
2021/05/11 03:09:06;;;;;;;1.83;1.23;;;;;;;20.56;36.34;100798.28;4172948;28;20036;-51
2021/05/11 03:11:07;;;;;;;2.58;1.33;;;;;;;20.65;36.33;100796.56;4176055;28;20040;-51
2021/05/11 03:13:08;;;;;;;1.98;1.25;;;;;;;20.63;36.30;100801.56;4174331;28;20107;-51
2021/05/11 03:15:09;;;;;;;2.25;1.58;;;;;;;20.56;36.26;100798.28;4174849;28;20112;-52
2021/05/11 03:17:09;;;;;;;2.40;1.33;;;;;;;20.56;36.04;100786.31;4176171;28;20053;-50
2021/05/11 03:19:10;;;;;;;2.47;1.13;;;;;;;20.59;36.17;100789.38;4175255;28;20502;-51
2021/05/11 03:21:11;;;;;;;2.50;1.25;;;;;;;20.56;36.27;100792.72;4172961;28;20021;-51
2021/05/11 03:23:11;;;;;;;3.08;0.90;;;;;;;20.56;36.12;100792.72;4171825;28;20112;-54
2021/05/11 03:25:12;;;;;;;3.33;1.40;;;;;;;20.57;36.39;100797.19;4176183;28;20477;-54
2021/05/11 03:27:14;;;;;;;1.77;1.27;;;;;;;20.52;36.34;100786.06;4176125;28;20120;-52
2021/05/11 03:29:14;;;;;;;2.50;1.15;;;;;;;20.47;36.10;100780.56;4174771;28;20051;-52
2021/05/11 03:31:15;;;;;;;1.83;1.25;;;;;;;20.54;36.27;100796.91;4176652;28;20116;-53
2021/05/11 03:33:15;;;;;;;2.88;1.15;;;;;;;20.48;36.15;100787.78;4173747;28;20557;-51
2021/05/11 03:35:16;;;;;;;2.15;1.10;;;;;;;20.50;36.57;100799.44;4176077;28;20029;-52
2021/05/11 03:37:16;;;;;;;9.45;1.15;;;;;;;20.49;36.36;100800.56;4174408;28;20064;-51
2021/05/11 03:39:17;;;;;;;1.52;0.82;;;;;;;20.48;36.25;100801.66;4174817;28;20037;-57
2021/05/11 03:41:19;;;;;;;3.13;1.10;;;;;;;20.51;36.22;100803.06;4176293;28;20037;-51
2021/05/11 03:43:27;;;;;;;1.85;0.95;;;;;;;20.48;36.09;100807.22;4175128;28;20063;-52
2021/05/11 03:45:33;;;;;;;2.25;1.02;;;;;;;20.51;36.29;100798.31;4175181;28;20123;-54
2021/05/11 03:47:44;;;;;;;1.63;0.85;;;;;;;20.48;36.15;100804.44;4171055;28;20072;-51
2021/05/11 03:49:44;;;;;;;2.28;0.90;;;;;;;20.42;36.36;100809.25;4173064;28;20108;-50
2021/05/11 03:51:45;;;;;;;1.58;0.80;;;;;;;20.31;36.48;100797.38;4176339;28;20064;-50
2021/05/11 03:53:45;;;;;;;1.52;1.00;;;;;;;20.44;36.24;100814.53;4171427;28;20064;-53
2021/05/11 03:55:47;;;;;;;1.63;0.85;;;;;;;20.38;36.59;100810.13;4157011;28;20040;-48
2021/05/11 03:57:47;;;;;;;3.55;0.90;;;;;;;20.40;36.27;100813.44;4176168;28;20059;-50
2021/05/11 03:59:48;;;;;;;2.10;1.10;;;;;;;20.35;36.41;100813.47;4174359;28;20029;-51
2021/05/11 04:01:48;;;;;;;1.15;0.98;;;;;;;20.44;36.35;100808.97;4175268;28;20033;-50
2021/05/11 04:03:48;;;;;;;1.52;0.90;;;;;;;20.22;36.54;100789.94;4175852;28;20017;-52
2021/05/11 04:05:51;;;;;;;2.50;1.10;;;;;;;20.31;36.23;100804.88;4171766;28;21179;-52
2021/05/11 04:07:56;;;;;;;4.25;1.13;;;;;;;20.25;36.72;100818.00;4177218;28;20096;-51
2021/05/11 04:09:58;;;;;;;2.42;1.30;;;;;;;20.29;36.44;100818.25;4175562;28;20064;-54
2021/05/11 04:18:09;;;;;;;3.45;1.15;;;;;;;20.21;36.42;100825.25;4176068;28;20091;-51
2021/05/11 04:20:11;;;;;;;1.88;1.20;;;;;;;20.29;36.36;100835.72;4179059;28;20043;-49
2021/05/11 04:22:11;;;;;;;2.47;1.30;;;;;;;20.28;36.44;100836.03;4177148;28;20037;-51
2021/05/11 04:24:12;;;;;;;3.33;1.33;;;;;;;20.31;36.15;100839.06;4172857;28;20387;-50
2021/05/11 04:26:13;;;;;;;1.63;0.82;;;;;;;20.35;36.29;100844.06;4175044;28;20041;-51
2021/05/11 04:28:14;;;;;;;1.55;0.80;;;;;;;20.26;36.45;100852.16;4178754;28;20131;-48
2021/05/11 04:30:16;;;;;;;1.83;0.90;;;;;;;20.28;36.35;100848.00;4178966;28;20044;-53
2021/05/11 04:32:16;;;;;;;0.93;0.70;;;;;;;20.12;36.46;100840.88;4176395;28;20110;-52
2021/05/11 04:34:16;;;;;;;1.73;1.00;;;;;;;20.22;36.39;100849.16;4178246;28;20045;-49
2021/05/11 04:36:17;;;;;;;1.95;0.88;;;;;;;20.21;36.61;100839.13;4177210;28;20045;-52
2021/05/11 04:38:18;;;;;;;2.03;0.82;;;;;;;20.26;36.28;100849.38;4176543;28;21073;-55
2021/05/11 04:40:18;;;;;;;4.40;1.15;;;;;;;20.19;36.57;100840.53;4179063;28;20025;-51
2021/05/11 04:42:19;;;;;;;2.90;1.02;;;;;;;20.10;36.57;100845.91;4174507;28;20576;-51
2021/05/11 04:44:21;;;;;;;2.28;0.90;;;;;;;20.18;36.35;100844.44;4178297;28;20530;-52
2021/05/11 04:46:27;;;;;;;3.22;1.10;;;;;;;20.25;36.50;100851.34;4178301;28;20052;-55
2021/05/11 04:48:27;;;;;;;0.98;0.80;;;;;;;20.20;36.25;100851.38;4174978;28;20076;-50
2021/05/11 04:50:28;;;;;;;1.60;1.13;;;;;;;20.19;36.33;100848.88;4172840;28;20373;-50
2021/05/11 04:52:28;;;;;;;1.60;0.80;;;;;;;19.99;36.46;100814.56;4175891;28;20025;-52
2021/05/11 04:54:29;;;;;;;1.42;0.82;;;;;;;20.10;36.48;100837.56;4176612;28;20068;-50
2021/05/11 04:56:29;;;;;;;2.08;0.85;;;;;;;20.11;36.66;100831.72;4177338;28;20403;-50
2021/05/11 04:58:29;;;;;;;1.92;0.95;;;;;;;20.02;36.95;100829.81;4176337;28;20029;-50
2021/05/11 05:00:30;;;;;;;2.33;0.85;;;;;;;20.05;36.76;100832.00;4178766;28;20036;-50
2021/05/11 05:02:31;;;;;;;4.50;1.60;;;;;;;19.93;36.78;100840.72;4177188;28;20029;-50
2021/05/11 05:04:35;;;;;;;1.60;0.98;;;;;;;20.06;36.61;100830.91;4176439;28;20131;-54
2021/05/11 05:06:35;;;;;;;1.33;1.00;;;;;;;19.98;36.71;100839.84;4176995;28;20037;-53
2021/05/11 05:08:36;;;;;;;2.05;1.20;;;;;;;19.99;36.59;100841.50;4173297;28;20057;-53
2021/05/11 05:10:37;;;;;;;1.90;1.25;;;;;;;19.75;36.93;100814.38;4176393;28;20033;-52
2021/05/11 05:12:38;;;;;;;1.33;0.98;;;;;;;19.90;36.83;100842.09;4176595;28;20029;-48
2021/05/11 05:14:38;;;;;;;1.88;1.10;;;;;;;20.09;36.64;100841.44;4176930;28;20027;-50
2021/05/11 05:16:39;;;;;;;3.40;0.95;;;;;;;19.95;36.86;100844.84;4177986;28;20041;-51
2021/05/11 05:18:39;;;;;;;2.13;1.00;;;;;;;20.00;36.48;100846.75;4177149;28;20135;-55
2021/05/11 05:20:40;;;;;;;2.00;0.98;;;;;;;19.91;36.97;100835.44;4178095;28;20033;-49
2021/05/11 05:22:42;;;;;;;1.63;0.90;;;;;;;19.89;36.93;100850.72;4175329;28;20479;-51
2021/05/11 05:24:55;;;;;;;3.60;1.25;;;;;;;19.90;36.74;100853.22;4174375;28;20748;-49
2021/05/11 05:26:59;;;;;;;1.42;0.82;;;;;;;19.92;36.85;100844.59;4177661;28;20040;-53
2021/05/11 05:29:02;;;;;;;2.30;0.98;;;;;;;19.92;36.83;100847.38;4175073;28;20112;-55
2021/05/11 05:31:03;;;;;;;1.50;1.10;;;;;;;19.99;36.52;100858.16;4175862;28;20040;-52
2021/05/11 05:33:03;;;;;;;2.85;1.00;;;;;;;19.89;36.86;100859.88;4174797;28;20537;-50
2021/05/11 05:35:05;;;;;;;1.77;1.30;;;;;;;19.91;36.71;100854.88;4174325;28;20071;-51
2021/05/11 05:37:05;;;;;;;1.27;1.17;;;;;;;19.87;37.06;100856.56;4177367;28;20049;-48
2021/05/11 05:39:06;;;;;;;8.52;1.58;;;;;;;19.93;36.63;100866.53;4174734;28;20041;-49
2021/05/11 05:41:12;;;;;;;1.63;0.90;;;;;;;19.92;36.48;100861.25;4177117;28;20029;-50
2021/05/11 05:43:12;;;;;;;1.52;0.75;;;;;;;19.90;36.93;100857.94;4177828;28;20395;-55
2021/05/11 05:45:14;;;;;;;1.92;1.00;;;;;;;19.64;36.74;100829.44;4176580;28;20037;-50
2021/05/11 05:47:14;;;;;;;2.03;0.85;;;;;;;19.89;36.69;100859.88;4177522;28;20041;-53
2021/05/11 05:49:15;;;;;;;3.10;1.15;;;;;;;19.82;36.83;100866.81;4175542;28;20174;-51
2021/05/11 05:51:16;;;;;;;1.90;1.05;;;;;;;19.83;36.84;100849.06;4174198;28;20036;-53
2021/05/11 05:53:22;;;;;;;1.02;0.90;;;;;;;19.76;37.19;100852.16;4176846;28;20474;-52
2021/05/11 05:55:22;;;;;;;1.60;0.85;;;;;;;19.79;37.06;100848.81;4174068;28;20045;-54
2021/05/11 05:57:23;;;;;;;1.73;1.00;;;;;;;19.80;37.06;100850.44;4175058;28;20079;-56
2021/05/11 05:59:23;;;;;;;2.35;1.25;;;;;;;19.76;36.97;100841.03;4177337;28;20066;-50
2021/05/11 06:01:28;;;;;;;1.35;1.23;;;;;;;19.85;36.91;100839.38;4173290;28;20041;-51
2021/05/11 06:03:49;;;;;;;2.88;1.00;;;;;;;19.72;36.95;100838.00;4176013;28;20187;-54
2021/05/11 06:05:49;;;;;;;1.98;1.02;;;;;;;19.90;36.54;100838.50;4174518;28;20037;-54
2021/05/11 06:07:51;;;;;;;1.65;0.95;;;;;;;19.89;36.50;100837.66;4176488;28;20060;-48
2021/05/11 06:09:53;;;;;;;2.35;1.55;;;;;;;19.99;36.35;100836.78;4174244;28;20032;-50
2021/05/11 06:12:02;;;;;;;2.38;1.63;;;;;;;19.93;36.89;100838.75;4172796;28;20028;-57
2021/05/11 06:18:22;;;;;;;3.08;1.30;;;;;;;19.87;37.09;100839.91;4176495;28;20059;-53
2021/05/11 06:20:23;;;;;;;1.67;1.17;;;;;;;19.87;37.24;100839.91;4176614;28;20033;-51
2021/05/11 06:22:23;;;;;;;2.80;1.33;;;;;;;19.95;37.06;100846.81;4172395;28;20043;-50
2021/05/11 06:24:24;;;;;;;4.88;1.13;;;;;;;19.97;37.17;100846.53;4169546;28;20095;-53
2021/05/11 06:26:24;;;;;;;1.40;1.00;;;;;;;20.03;37.15;100840.63;4173680;28;20045;-53
2021/05/11 06:28:25;;;;;;;2.75;0.93;;;;;;;20.05;37.04;100835.63;4174492;28;20036;-56
2021/05/11 06:30:25;;;;;;;1.73;1.10;;;;;;;20.03;37.39;100823.97;4171509;28;20491;-53
2021/05/11 06:32:27;;;;;;;2.20;0.90;;;;;;;20.10;37.02;100832.81;4172236;28;20391;-53
2021/05/11 06:34:27;;;;;;;2.65;1.65;;;;;;;20.09;37.03;100830.31;4174206;28;20036;-54
2021/05/11 06:36:28;;;;;;;2.42;1.13;;;;;;;20.07;37.22;100827.00;4170668;28;20380;-54
2021/05/11 06:38:29;;;;;;;1.48;1.10;;;;;;;20.12;37.07;100836.13;4170878;28;20080;-52
2021/05/11 06:40:31;;;;;;;4.50;1.38;;;;;;;20.18;36.93;100828.59;4174678;28;20033;-51
2021/05/11 06:42:31;;;;;;;3.65;0.98;;;;;;;20.14;37.23;100827.50;4169628;28;20060;-53
2021/05/11 06:44:48;;;;;;;3.60;1.60;;;;;;;20.18;37.01;100823.03;4173876;28;20391;-51
2021/05/11 06:53:59;;;;;;;3.47;1.67;;;;;;;20.18;37.73;100825.81;4139794;28;20037;-52
2021/05/11 06:56:00;;;;;;;3.55;1.92;;;;;;;20.25;37.36;100829.13;4172329;28;20159;-52
2021/05/11 06:58:03;;;;;;;4.05;1.58;;;;;;;20.24;37.38;100830.22;4172529;28;20479;-52
2021/05/11 07:00:04;;;;;;;3.85;1.48;;;;;;;20.21;37.69;100825.25;4165481;28;20289;-52
2021/05/11 07:02:05;;;;;;;2.85;1.35;;;;;;;20.25;37.80;100833.81;4170332;28;20044;-51
2021/05/11 07:04:05;;;;;;;3.42;1.92;;;;;;;20.24;37.75;100827.44;4173039;28;20059;-50
2021/05/11 07:06:06;;;;;;;4.00;1.88;;;;;;;20.28;37.70;100834.09;4173965;28;20040;-54
2021/05/11 07:08:19;;;;;;;3.85;1.90;;;;;;;20.30;37.66;100828.25;4171525;28;20290;-54
2021/05/11 07:10:23;;;;;;;4.38;1.65;;;;;;;20.33;37.68;100822.09;4175271;28;20048;-52
2021/05/11 07:14:44;;;;;;;3.75;1.60;;;;;;;20.27;37.39;100826.88;4170128;28;20311;-56
2021/05/11 07:16:45;;;;;;;4.72;1.55;;;;;;;20.35;37.43;100833.75;4171705;28;20112;-55
2021/05/11 07:18:45;;;;;;;1.98;1.13;;;;;;;20.37;37.41;100830.69;4171020;28;20036;-57
2021/05/11 07:20:47;;;;;;;2.85;1.35;;;;;;;20.35;37.23;100842.09;4173888;28;20056;-53
2021/05/11 07:22:48;;;;;;;3.22;1.33;;;;;;;20.38;37.37;100837.91;4173713;28;20037;-55
2021/05/11 07:24:52;;;;;;;2.85;1.70;;;;;;;20.39;37.43;100829.28;4171475;28;20186;-51
2021/05/11 07:28:04;;;;;;;2.65;1.27;;;;;;;20.36;37.52;100834.56;4174433;28;20446;-52
2021/05/11 07:31:36;;;;;;;2.33;1.50;;;;;;;20.38;37.38;100832.34;4167804;28;20530;-56
2021/05/11 07:35:41;;;;;;;2.53;1.20;;;;;;;20.45;37.19;100839.25;4170272;28;20068;-52
2021/05/11 07:37:42;;;;;;;2.05;1.20;;;;;;;20.49;37.36;100842.28;4173045;28;20469;-58
2021/05/11 07:39:45;;;;;;;2.67;1.30;;;;;;;20.49;37.51;100823.63;4171215;28;20052;-52
2021/05/11 07:41:46;;;;;;;5.40;1.38;;;;;;;20.52;37.62;100830.56;4172455;28;20040;-53
2021/05/11 07:43:54;;;;;;;1.75;0.88;;;;;;;20.47;37.55;100819.50;4173042;28;20040;-55
2021/05/11 07:50:37;;;;;;;3.85;1.20;;;;;;;20.51;37.29;100817.78;4171549;28;20178;-56
2021/05/11 08:02:20;;;;;;;5.47;1.55;;;;;;;20.73;37.40;100814.56;4171091;28;20087;-55
2021/05/11 08:15:48;;;;;;;5.40;1.27;;;;;;;21.05;38.01;100810.34;4173035;28;20143;-55
2021/05/11 08:17:57;;;;;;;3.92;0.90;;;;;;;21.00;38.36;100811.22;4173463;28;20043;-54
2021/05/11 08:28:42;;;;;;;4.35;1.08;;;;;;;21.23;38.45;100805.16;4163494;28;20087;-51
2021/05/11 08:30:43;;;;;;;5.60;1.00;;;;;;;21.31;38.66;100799.78;4171673;28;20357;-50
2021/05/11 08:32:43;;;;;;;3.28;1.05;;;;;;;21.31;38.99;100805.34;4165578;28;20549;-53
2021/05/11 08:34:45;;;;;;;1.45;1.05;;;;;;;21.34;38.78;100790.81;4170749;28;20045;-53
2021/05/11 08:36:46;;;;;;;2.28;1.13;;;;;;;21.46;38.72;100790.41;4171199;28;20045;-48
2021/05/11 08:38:46;;;;;;;3.30;0.98;;;;;;;21.37;39.47;100794.97;4174356;28;20041;-49
2021/05/11 08:40:47;;;;;;;5.00;1.23;;;;;;;21.48;39.22;100795.69;4169236;28;20048;-51
2021/05/11 08:42:47;;;;;;;3.97;1.10;;;;;;;21.55;38.82;100791.41;4173357;28;20082;-54
2021/05/11 08:44:47;;;;;;;0.90;0.73;;;;;;;21.62;39.22;100788.22;4173722;28;20086;-53
2021/05/11 08:46:48;;;;;;;3.83;1.42;;;;;;;21.64;39.08;100796.28;4171224;28;20056;-54
2021/05/11 08:48:50;;;;;;;2.92;0.88;;;;;;;21.64;39.31;100786.00;4172915;28;20170;-51
2021/05/11 08:51:01;;;;;;;3.63;1.20;;;;;;;21.77;39.08;100794.75;4155142;28;20074;-53
2021/05/11 09:07:33;;;;;;;2.35;1.38;;;;;;;21.83;37.67;100810.25;4166191;28;20072;-63
2021/05/11 09:23:58;;;;;;;4.30;1.20;;;;;;;21.51;37.63;100817.34;4167000;28;20122;-66
2021/05/11 09:26:20;;;;;;;3.05;1.30;;;;;;;21.63;37.49;100825.28;4168355;28;20041;-54
2021/05/11 09:28:40;;;;;;;7.32;1.52;;;;;;;21.79;37.51;100831.47;4174647;28;20036;-53
2021/05/11 09:44:51;;;;;;;4.50;1.42;;;;;;;21.78;37.73;100796.38;4171916;28;20119;-50
2021/05/11 10:01:30;;;;;;;4.90;1.17;;;;;;;22.48;37.95;100836.59;4168242;28;19972;-54
2021/05/11 10:14:20;;;;;;;6.43;0.90;;;;;;;22.54;38.05;100836.22;4172420;28;20067;-57
2021/05/11 10:38:59;;;;;;;7.70;0.90;;;;;;;22.78;38.38;100830.53;4168193;28;20114;-60
2021/05/11 10:47:28;;;;;;;3.45;1.13;;;;;;;22.90;37.94;100816.09;4149550;28;20089;-48
2021/05/11 10:49:34;;;;;;;8.60;1.17;;;;;;;22.92;38.02;100813.00;4174068;28;20039;-50
2021/05/11 10:51:42;;;;;;;3.40;0.82;;;;;;;22.88;38.16;100810.00;4171181;28;20041;-62
2021/05/11 10:53:45;;;;;;;2.10;0.90;;;;;;;22.90;37.96;100818.88;4167536;28;20037;-61
2021/05/11 10:55:46;;;;;;;4.40;0.98;;;;;;;22.93;37.97;100809.06;4174078;28;20040;-64
2021/05/11 10:57:57;;;;;;;2.40;0.98;;;;;;;22.91;38.29;100814.13;4170528;28;20044;-60
2021/05/11 11:02:01;;;;;;;10.10;1.50;;;;;;;23.03;38.18;100796.88;4172827;28;19921;-55
2021/05/11 11:04:13;;;;;;;2.85;1.08;;;;;;;23.07;38.22;100798.75;4175267;28;20062;-54
2021/05/11 11:06:13;;;;;;;7.97;1.52;;;;;;;23.09;38.21;100792.84;4171859;28;20658;-55
2021/05/11 11:08:38;;;;;;;7.38;1.05;;;;;;;23.14;37.95;100798.31;4171799;28;20057;-52
2021/05/11 11:10:40;;;;;;;3.67;1.17;;;;;;;23.15;37.90;100805.56;4170504;28;20119;-55
2021/05/11 11:12:42;;;;;;;1.65;0.63;;;;;;;23.18;38.09;100795.75;4171886;28;20048;-53
2021/05/11 11:14:43;;;;;;;11.25;1.20;;;;;;;23.19;37.92;100784.28;4173383;28;20061;-52
2021/05/11 11:16:44;;;;;;;5.43;0.90;;;;;;;23.22;38.18;100789.25;4171060;28;20436;-53
2021/05/11 11:18:47;;;;;;;3.70;0.88;;;;;;;23.23;37.99;100785.28;4174721;28;20045;-51
2021/05/11 11:20:49;;;;;;;5.38;0.90;;;;;;;23.24;37.78;100781.38;4170011;28;20037;-51
2021/05/11 11:25:19;;;;;;;5.05;1.10;;;;;;;23.33;37.93;100767.53;4174313;28;20059;-54
2021/05/11 11:27:31;;;;;;;5.75;1.00;;;;;;;23.33;37.71;100770.34;4171938;28;20799;-54
2021/05/11 11:29:31;;;;;;;9.63;1.15;;;;;;;23.33;37.76;100762.78;4172956;28;20043;-55
2021/05/11 11:31:34;;;;;;;5.85;1.00;;;;;;;23.36;37.98;100769.72;4172187;28;20128;-59
2021/05/11 11:33:34;;;;;;;2.50;0.88;;;;;;;23.40;38.05;100759.56;4171013;28;20126;-55
2021/05/11 11:35:35;;;;;;;1.67;0.75;;;;;;;23.36;38.01;100757.69;4172464;28;20491;-56
2021/05/11 11:37:36;;;;;;;8.90;0.90;;;;;;;23.34;37.85;100758.00;4172487;28;20049;-55
2021/05/11 11:39:42;;;;;;;2.78;1.05;;;;;;;23.36;37.98;100752.94;4172591;28;20036;-53
2021/05/11 11:41:43;;;;;;;3.70;1.40;;;;;;;23.41;37.54;100747.25;4172682;28;20025;-54
2021/05/11 11:43:43;;;;;;;4.82;1.13;;;;;;;23.40;37.81;100744.75;4173230;28;20033;-53
2021/05/11 11:45:44;;;;;;;1.83;1.17;;;;;;;23.40;37.52;100748.38;4174036;28;20122;-53
2021/05/11 11:48:00;;;;;;;4.32;1.00;;;;;;;23.38;37.11;100744.25;4171957;28;20029;-53
2021/05/11 11:50:06;;;;;;;7.85;1.20;;;;;;;23.41;37.06;100741.66;4175439;28;20040;-55
2021/05/11 11:52:12;;;;;;;6.35;1.33;;;;;;;23.32;37.56;100733.19;4173054;28;20462;-53
2021/05/11 11:57:45;;;;;;;1.45;1.00;;;;;;;23.44;36.66;100735.44;4147042;28;20565;-54
2021/05/11 11:59:05;;;;;;;1.52;1.08;;;;;;;23.43;36.92;100725.41;4172089;28;20128;-54
2021/05/11 12:01:14;;;;;;;5.82;0.95;;;;;;;23.49;36.93;100726.94;4173940;28;20082;-51
2021/05/11 12:03:15;;;;;;;1.88;0.88;;;;;;;23.52;37.29;100720.72;4172540;28;20037;-53
2021/05/11 12:05:15;;;;;;;3.08;1.30;;;;;;;23.52;37.38;100733.88;4155156;28;20038;-48
2021/05/11 12:07:17;;;;;;;3.40;1.48;;;;;;;23.22;37.28;100733.38;4171388;28;20137;-62
2021/05/11 12:09:21;;;;;;;6.07;1.85;;;;;;;23.00;37.24;100738.88;4170040;28;20560;-64
2021/05/11 12:11:21;;;;;;;3.67;1.40;;;;;;;22.98;37.33;100745.59;4170734;28;20036;-61
2021/05/11 12:13:28;;;;;;;1.92;1.30;;;;;;;22.78;37.41;100746.81;4173209;28;20052;-62
2021/05/11 12:15:28;;;;;;;2.13;1.80;;;;;;;22.91;37.38;100769.47;4173700;28;20033;-61
2021/05/11 12:17:32;;;;;;;2.92;1.20;;;;;;;22.82;37.68;100769.38;4172108;28;20042;-61
2021/05/11 12:19:33;;;;;;;1.40;1.30;;;;;;;22.81;37.47;100784.44;4170893;28;20053;-61
2021/05/11 12:21:36;;;;;;;2.33;1.42;;;;;;;22.83;37.64;100781.34;4168421;28;20804;-62
2021/05/11 12:23:36;;;;;;;1.73;1.10;;;;;;;22.78;37.52;100776.69;4173285;28;20071;-62
2021/05/11 12:25:36;;;;;;;2.47;1.20;;;;;;;22.87;37.28;100791.59;4172238;28;20057;-63
2021/05/11 12:27:40;;;;;;;2.58;1.15;;;;;;;22.79;37.49;100803.47;4171152;28;20036;-62
2021/05/11 12:30:06;;;;;;;3.45;1.25;;;;;;;22.77;37.50;100798.19;4174168;28;20033;-62
2021/05/11 12:32:07;;;;;;;2.00;1.67;;;;;;;22.87;37.10;100810.31;4173803;28;20096;-62
2021/05/11 12:34:10;;;;;;;2.10;1.65;;;;;;;22.77;36.98;100795.41;4174261;28;20036;-62
2021/05/11 12:36:25;;;;;;;2.47;1.98;;;;;;;22.75;37.72;100806.03;4174270;28;20032;-63
2021/05/11 12:38:26;;;;;;;3.20;1.38;;;;;;;22.80;37.25;100805.09;4175681;28;20029;-62
2021/05/11 12:41:10;;;;;;;3.65;2.03;;;;;;;22.79;37.17;100801.50;4171204;28;20029;-63
2021/05/11 12:43:11;;;;;;;3.03;1.95;;;;;;;22.77;37.19;100795.41;4175348;28;20475;-62
2021/05/11 12:45:14;;;;;;;2.10;1.90;;;;;;;22.80;37.18;100794.78;4176227;28;20033;-62
2021/05/11 12:47:16;;;;;;;2.10;1.65;;;;;;;22.73;37.19;100785.97;4172933;28;20042;-62
2021/05/11 12:49:18;;;;;;;1.88;1.63;;;;;;;22.79;37.29;100797.88;4176562;28;20025;-62
2021/05/11 12:51:53;;;;;;;1.80;1.70;;;;;;;22.72;37.32;100795.47;4171540;28;20029;-62
2021/05/11 12:53:56;;;;;;;2.42;2.17;;;;;;;22.79;37.50;100795.91;4154378;28;20049;-62
2021/05/11 12:56:11;;;;;;;2.45;2.25;;;;;;;22.75;37.37;100800.44;4175274;28;20028;-62